CFG25 EDLW-EDDS
Flight info
| Callsign | CFG25 |
|---|---|
| Flight time | N/A |
| Altitude | 23000 |
| Route | GMH8Q GMH Z841 BIGSU L603 BOMBI N850 RINEX Z818 UBEGA/N0339F110 Z818 ETASA DCT NOSBU T726 LBU |
| Aircraft | A320/M-SDE3FGHIRWY/LB1 |
Departure
| Time | 2026-04-29 14:45 |
|---|---|
| Airport | Dortmund Airport (EDLW) |
Arrival
| Time | N/A |
|---|---|
| Airport | Stuttgart Airport (EDDS) |
| Time | Latitude | Longitude | Altitude | Speed | Heading |
|---|---|---|---|---|---|
| 2026-04-29 14:15 | 51.51585 | 7.61284 | 424 ft | 0 kts | 332° |
| 2026-04-29 14:36 | 51.51588 | 7.61281 | 434 ft | 4 kts | 332° |
| 2026-04-29 14:37 | 51.51627 | 7.61219 | 426 ft | 9 kts | 287° |
| 2026-04-29 14:37 | 51.51593 | 7.61078 | 429 ft | 17 kts | 244° |
| 2026-04-29 14:37 | 51.51542 | 7.60912 | 428 ft | 17 kts | 240° |
| 2026-04-29 14:37 | 51.51510 | 7.60821 | 422 ft | 8 kts | 240° |
| 2026-04-29 14:38 | 51.51500 | 7.60792 | 417 ft | 0 kts | 240° |
| 2026-04-29 14:38 | 51.51498 | 7.60788 | 418 ft | 2 kts | 240° |
| 2026-04-29 14:38 | 51.51498 | 7.60787 | 423 ft | 0 kts | 240° |
| 2026-04-29 14:41 | 51.51494 | 7.60774 | 418 ft | 3 kts | 240° |
| 2026-04-29 14:41 | 51.51487 | 7.60755 | 419 ft | 3 kts | 241° |
| 2026-04-29 14:41 | 51.51485 | 7.60749 | 420 ft | 0 kts | 241° |
| 2026-04-29 14:42 | 51.51482 | 7.60739 | 417 ft | 3 kts | 241° |
| 2026-04-29 14:42 | 51.51461 | 7.60682 | 418 ft | 7 kts | 239° |
| 2026-04-29 14:42 | 51.51443 | 7.60635 | 421 ft | 4 kts | 239° |
| 2026-04-29 14:42 | 51.51420 | 7.60570 | 424 ft | 16 kts | 241° |
| 2026-04-29 14:43 | 51.51379 | 7.60451 | 419 ft | 14 kts | 242° |
| 2026-04-29 14:43 | 51.51366 | 7.60320 | 415 ft | 12 kts | 295° |
| 2026-04-29 14:43 | 51.51450 | 7.60241 | 415 ft | 16 kts | 357° |
| 2026-04-29 14:43 | 51.51517 | 7.60324 | 413 ft | 0 kts | 60° |
| 2026-04-29 14:44 | 51.51518 | 7.60327 | 413 ft | 2 kts | 60° |
| 2026-04-29 14:44 | 51.51614 | 7.60602 | 414 ft | 65 kts | 60° |
| 2026-04-29 14:44 | 51.51937 | 7.61521 | 415 ft | 123 kts | 60° |
| 2026-04-29 14:44 | 51.52356 | 7.62790 | 966 ft | 126 kts | 62° |
| 2026-04-29 14:45 | 51.52745 | 7.64037 | 1739 ft | 125 kts | 63° |
| 2026-04-29 14:45 | 51.53157 | 7.65184 | 2352 ft | 122 kts | 62° |
| 2026-04-29 14:45 | 51.53625 | 7.66457 | 2618 ft | 142 kts | 60° |
| 2026-04-29 14:45 | 51.54165 | 7.67963 | 2786 ft | 170 kts | 62° |
| 2026-04-29 14:46 | 51.54793 | 7.69723 | 3000 ft | 194 kts | 61° |
| 2026-04-29 14:46 | 51.55510 | 7.71730 | 3368 ft | 220 kts | 61° |
| 2026-04-29 14:46 | 51.56058 | 7.74105 | 3844 ft | 236 kts | 88° |
| 2026-04-29 14:46 | 51.55592 | 7.76615 | 4566 ft | 248 kts | 124° |
| 2026-04-29 14:47 | 51.54284 | 7.78507 | 4937 ft | 260 kts | 149° |
| 2026-04-29 14:47 | 51.52491 | 7.79062 | 5181 ft | 274 kts | 179° |
| 2026-04-29 14:47 | 51.50604 | 7.78569 | 6103 ft | 277 kts | 191° |
| 2026-04-29 14:47 | 51.48764 | 7.77542 | 6996 ft | 282 kts | 198° |
| 2026-04-29 14:48 | 51.46907 | 7.76445 | 7786 ft | 287 kts | 196° |
| 2026-04-29 14:48 | 51.44995 | 7.75459 | 8560 ft | 290 kts | 188° |
| 2026-04-29 14:48 | 51.42986 | 7.75192 | 9310 ft | 291 kts | 172° |
| 2026-04-29 14:48 | 51.40990 | 7.75755 | 10052 ft | 293 kts | 158° |
| 2026-04-29 14:49 | 51.39058 | 7.76854 | 10672 ft | 301 kts | 156° |
| 2026-04-29 14:49 | 51.37009 | 7.78033 | 10906 ft | 324 kts | 156° |
| 2026-04-29 14:49 | 51.34803 | 7.79292 | 11122 ft | 348 kts | 157° |
| 2026-04-29 14:49 | 51.32443 | 7.80627 | 11288 ft | 371 kts | 157° |
| 2026-04-29 14:50 | 51.29937 | 7.82034 | 11421 ft | 392 kts | 158° |
| 2026-04-29 14:50 | 51.27311 | 7.83499 | 11706 ft | 405 kts | 158° |
| 2026-04-29 14:50 | 51.24625 | 7.84987 | 12249 ft | 411 kts | 158° |
| 2026-04-29 14:50 | 51.21911 | 7.86491 | 12829 ft | 415 kts | 158° |
| 2026-04-29 14:51 | 51.19182 | 7.88026 | 13451 ft | 418 kts | 156° |
| 2026-04-29 14:51 | 51.16558 | 7.90026 | 14026 ft | 418 kts | 146° |
| 2026-04-29 14:51 | 51.14167 | 7.92656 | 14537 ft | 419 kts | 139° |
| 2026-04-29 14:51 | 51.11837 | 7.95475 | 15023 ft | 423 kts | 140° |
| 2026-04-29 14:52 | 51.09480 | 7.98312 | 15499 ft | 427 kts | 140° |
| 2026-04-29 14:52 | 51.07100 | 8.01168 | 15963 ft | 430 kts | 140° |